createdAt,value
2022-09-22T00:00:59.853Z,0.00
2022-09-22T00:01:59.820Z,0.00
2022-09-22T00:02:59.739Z,0.00
2022-09-22T00:03:59.731Z,0.00
2022-09-22T00:04:59.721Z,0.00
2022-09-22T00:05:59.718Z,0.00
2022-09-22T00:06:59.700Z,0.00
2022-09-22T00:07:59.721Z,0.00
2022-09-22T00:08:59.707Z,0.00
2022-09-22T00:09:59.670Z,0.00
2022-09-22T00:10:59.660Z,0.00
2022-09-22T00:11:59.652Z,0.00
2022-09-22T00:12:59.641Z,0.00
2022-09-22T00:13:59.659Z,0.00
2022-09-22T00:14:59.629Z,0.00
2022-09-22T00:15:59.648Z,0.00
2022-09-22T00:16:59.604Z,0.00
2022-09-22T00:17:59.594Z,0.00
2022-09-22T00:18:59.583Z,0.00
2022-09-22T00:19:59.592Z,0.00
2022-09-22T00:20:59.554Z,0.00
2022-09-22T00:21:59.554Z,0.00
2022-09-22T00:22:59.533Z,0.00
2022-09-22T00:23:59.583Z,0.00
2022-09-22T00:24:59.513Z,0.00
2022-09-22T00:25:59.542Z,0.00
2022-09-22T00:26:59.501Z,0.00
2022-09-22T00:27:59.504Z,0.00
2022-09-22T00:28:59.483Z,0.00
2022-09-22T00:29:59.467Z,0.00
2022-09-22T00:30:59.465Z,0.00
2022-09-22T00:32:02.419Z,0.00
2022-09-22T00:33:00.436Z,0.00
2022-09-22T00:33:59.435Z,0.00
2022-09-22T00:34:59.414Z,0.00
2022-09-22T00:35:59.415Z,0.00
2022-09-22T00:36:59.404Z,0.00
2022-09-22T00:37:59.435Z,0.00
2022-09-22T00:38:59.414Z,0.00
2022-09-22T00:39:59.366Z,0.00
2022-09-22T00:40:59.357Z,0.00
2022-09-22T00:41:59.353Z,0.00
2022-09-22T00:42:59.337Z,0.00
2022-09-22T00:43:59.356Z,0.00
2022-09-22T00:44:59.317Z,0.00
2022-09-22T00:45:59.306Z,0.00
2022-09-22T00:46:59.326Z,0.00
2022-09-22T00:47:59.288Z,0.00
2022-09-22T00:48:59.278Z,0.00
2022-09-22T00:49:59.293Z,0.00
2022-09-22T00:50:59.256Z,0.00
2022-09-22T00:51:59.247Z,0.00
2022-09-22T00:52:59.239Z,0.00
2022-09-22T00:53:59.230Z,0.00
2022-09-22T00:54:59.219Z,0.00
2022-09-22T00:55:59.244Z,0.00
2022-09-22T00:56:59.195Z,0.00
2022-09-22T00:57:59.187Z,0.00
2022-09-22T00:58:59.179Z,0.00
2022-09-22T00:59:59.177Z,0.00
2022-09-22T01:00:59.305Z,0.00
2022-09-22T01:01:59.218Z,0.00
2022-09-22T01:02:59.139Z,0.00
2022-09-22T01:03:59.132Z,0.00
2022-09-22T01:04:59.121Z,0.00
2022-09-22T01:05:59.111Z,0.00
2022-09-22T01:06:59.099Z,0.00
2022-09-22T01:07:59.118Z,0.00
2022-09-22T01:08:59.069Z,0.00
2022-09-22T01:09:59.069Z,0.00
2022-09-22T01:10:59.057Z,0.00
2022-09-22T01:11:59.061Z,0.00
2022-09-22T01:12:59.029Z,0.00
2022-09-22T01:13:59.052Z,0.00
2022-09-22T01:14:59.011Z,0.00
2022-09-22T01:15:59.062Z,0.00
2022-09-22T01:16:58.991Z,0.00
2022-09-22T01:17:58.990Z,0.00
2022-09-22T01:18:58.974Z,0.00
2022-09-22T01:19:58.993Z,0.00
2022-09-22T01:20:58.960Z,0.00
2022-09-22T01:21:58.942Z,0.00
2022-09-22T01:22:58.933Z,0.00
2022-09-22T01:23:58.948Z,0.00
2022-09-22T01:24:58.917Z,0.00
2022-09-22T01:25:58.931Z,0.00
2022-09-22T01:26:58.892Z,0.00
2022-09-22T01:27:58.882Z,0.00
2022-09-22T01:28:58.874Z,0.00
2022-09-22T01:29:58.870Z,0.00
2022-09-22T01:30:58.881Z,0.00
2022-09-22T01:31:58.883Z,0.00
2022-09-22T01:32:58.833Z,0.00
2022-09-22T01:33:58.824Z,0.00
2022-09-22T01:34:58.822Z,0.00
2022-09-22T01:35:58.814Z,0.00
2022-09-22T01:36:58.786Z,0.00
2022-09-22T01:37:58.831Z,0.00
2022-09-22T01:38:58.766Z,0.00
2022-09-22T01:39:58.761Z,0.00
2022-09-22T01:40:58.753Z,0.00
2022-09-22T01:41:58.744Z,0.00
2022-09-22T01:42:58.725Z,0.00
2022-09-22T01:43:58.746Z,0.00
2022-09-22T01:44:58.714Z,0.00
2022-09-22T01:45:58.761Z,0.00
2022-09-22T01:46:58.700Z,0.00
2022-09-22T01:47:58.685Z,0.00
2022-09-22T01:48:58.666Z,0.00
2022-09-22T01:49:58.696Z,0.00
2022-09-22T01:50:58.656Z,0.00
2022-09-22T01:51:58.643Z,0.00
2022-09-22T01:52:58.645Z,0.00
2022-09-22T01:53:58.625Z,0.00
2022-09-22T01:54:58.604Z,0.00
2022-09-22T01:55:58.639Z,0.00
2022-09-22T01:56:58.586Z,0.00
2022-09-22T01:57:58.586Z,0.00
2022-09-22T01:58:58.577Z,0.00
2022-09-22T01:59:58.576Z,0.00
2022-09-22T02:00:58.548Z,0.00
2022-09-22T02:01:58.664Z,0.00
2022-09-22T02:02:58.620Z,0.00
2022-09-22T02:03:58.528Z,0.00
2022-09-22T02:04:58.507Z,0.00
2022-09-22T02:05:58.498Z,0.00
2022-09-22T02:06:58.488Z,0.00
2022-09-22T02:07:58.517Z,0.00
2022-09-22T02:08:58.480Z,0.00
2022-09-22T02:09:58.461Z,0.00
2022-09-22T02:10:58.441Z,0.00
2022-09-22T02:11:58.430Z,0.00
2022-09-22T02:12:58.420Z,0.00
2022-09-22T02:13:58.451Z,0.00
2022-09-22T02:14:58.406Z,0.00
2022-09-22T02:15:58.432Z,0.00
2022-09-22T02:16:58.381Z,0.00
2022-09-22T02:17:58.384Z,0.00
2022-09-22T02:19:06.241Z,0.00
2022-09-22T02:19:59.390Z,0.00
2022-09-22T02:20:58.357Z,0.00
2022-09-22T02:21:58.331Z,0.00
2022-09-22T02:22:58.321Z,0.00
2022-09-22T02:23:58.323Z,0.00
2022-09-22T02:24:58.307Z,0.00
2022-09-22T02:25:58.329Z,0.00
2022-09-22T02:26:58.281Z,0.00
2022-09-22T02:27:58.278Z,0.00
2022-09-22T02:28:58.262Z,0.00
2022-09-22T02:29:58.251Z,0.00
2022-09-22T02:31:19.091Z,0.00
2022-09-22T02:31:59.355Z,0.00
2022-09-22T02:32:58.223Z,0.00
2022-09-22T02:33:58.213Z,0.00
2022-09-22T02:34:58.202Z,0.00
2022-09-22T02:35:58.192Z,0.00
2022-09-22T02:36:58.182Z,0.00
2022-09-22T02:37:58.214Z,0.00
2022-09-22T02:38:58.164Z,0.00
2022-09-22T02:39:58.154Z,0.00
2022-09-22T02:40:58.141Z,0.00
2022-09-22T02:41:58.138Z,0.00
2022-09-22T02:42:58.124Z,0.00
2022-09-22T02:43:58.152Z,0.00
2022-09-22T02:44:58.096Z,0.00
2022-09-22T02:45:58.156Z,0.00
2022-09-22T02:46:58.081Z,0.00
2022-09-22T02:47:58.093Z,0.00
2022-09-22T02:48:58.055Z,0.00
2022-09-22T02:49:58.086Z,0.00
2022-09-22T02:50:58.040Z,0.00
2022-09-22T02:51:58.026Z,0.00
2022-09-22T02:52:58.016Z,0.00
2022-09-22T02:53:58.013Z,0.00
2022-09-22T02:54:57.993Z,0.00
2022-09-22T02:55:58.036Z,0.00
2022-09-22T02:56:57.976Z,0.00
2022-09-22T02:57:57.968Z,0.00
2022-09-22T02:58:58.706Z,0.00
2022-09-22T02:59:57.957Z,0.00
2022-09-22T03:00:57.938Z,0.00
2022-09-22T03:01:58.000Z,0.00
2022-09-22T03:02:57.915Z,0.00
2022-09-22T03:03:57.909Z,0.00
2022-09-22T03:04:58.014Z,0.00
2022-09-22T03:05:57.888Z,0.00
2022-09-22T03:06:57.888Z,0.00
2022-09-22T03:07:57.903Z,0.00
2022-09-22T03:08:57.901Z,0.00
2022-09-22T03:09:57.849Z,0.00
2022-09-22T03:10:57.837Z,0.00
2022-09-22T03:11:57.828Z,0.00
2022-09-22T03:13:15.408Z,0.00
2022-09-22T03:13:58.837Z,0.00
2022-09-22T03:14:57.802Z,0.00
2022-09-22T03:15:57.867Z,0.00
2022-09-22T03:16:57.781Z,0.00
2022-09-22T03:17:57.769Z,0.00
2022-09-22T03:18:57.757Z,0.00
2022-09-22T03:19:57.770Z,0.00
2022-09-22T03:20:57.739Z,0.00
2022-09-22T03:21:57.720Z,0.00
2022-09-22T03:22:57.719Z,0.00
2022-09-22T03:23:57.700Z,0.00
2022-09-22T03:24:57.700Z,0.00
2022-09-22T03:25:57.711Z,0.00
2022-09-22T03:26:57.680Z,0.00
2022-09-22T03:27:57.673Z,0.00
2022-09-22T03:28:57.659Z,0.00
2022-09-22T03:29:57.642Z,0.00
2022-09-22T03:30:57.703Z,0.00
2022-09-22T03:31:57.664Z,0.00
2022-09-22T03:32:57.620Z,0.00
2022-09-22T03:33:57.604Z,0.00
2022-09-22T03:34:57.601Z,0.00
2022-09-22T03:35:57.581Z,0.00
2022-09-22T03:36:57.579Z,0.00
2022-09-22T03:37:57.603Z,0.00
2022-09-22T03:38:57.622Z,0.00
2022-09-22T03:39:57.543Z,0.00
2022-09-22T03:40:57.537Z,0.00
2022-09-22T03:41:57.523Z,0.00
2022-09-22T03:42:57.523Z,0.00
2022-09-22T03:43:57.534Z,0.00
2022-09-22T03:44:57.502Z,0.00
2022-09-22T03:45:57.542Z,0.00
2022-09-22T03:46:57.482Z,0.00
2022-09-22T03:47:57.462Z,0.00
2022-09-22T03:48:57.465Z,0.00
2022-09-22T03:49:57.484Z,0.00
2022-09-22T03:50:57.433Z,0.00
2022-09-22T03:51:57.428Z,0.00
2022-09-22T03:52:57.424Z,0.00
2022-09-22T03:53:57.445Z,0.00
2022-09-22T03:54:57.404Z,0.00
2022-09-22T03:55:57.406Z,0.00
2022-09-22T03:56:57.376Z,0.00
2022-09-22T03:57:57.363Z,0.00
2022-09-22T03:58:57.355Z,0.00
2022-09-22T03:59:58.100Z,0.00
2022-09-22T04:00:57.357Z,0.00
2022-09-22T04:01:58.413Z,0.00
2022-09-22T04:02:57.317Z,0.00
2022-09-22T04:03:57.308Z,0.00
2022-09-22T04:04:57.294Z,0.00
2022-09-22T04:05:57.286Z,0.00
2022-09-22T04:06:57.275Z,0.00
2022-09-22T04:07:57.308Z,0.00
2022-09-22T04:08:57.317Z,0.00
2022-09-22T04:09:57.243Z,0.00
2022-09-22T04:10:57.238Z,0.00
2022-09-22T04:11:57.219Z,0.00
2022-09-22T04:12:57.217Z,0.00
2022-09-22T04:13:57.254Z,0.00
2022-09-22T04:14:57.197Z,0.00
2022-09-22T04:15:57.183Z,0.00
2022-09-22T04:16:57.216Z,0.00
2022-09-22T04:17:57.158Z,0.00
2022-09-22T04:18:57.156Z,0.00
2022-09-22T04:19:57.159Z,0.00
2022-09-22T04:20:57.140Z,0.00
2022-09-22T04:21:57.547Z,0.00
2022-09-22T04:22:57.109Z,0.00
2022-09-22T04:23:57.155Z,0.00
2022-09-22T04:24:57.036Z,0.00
2022-09-22T04:25:57.118Z,0.00
2022-09-22T04:27:18.409Z,0.00
2022-09-22T04:28:01.187Z,0.00
2022-09-22T04:28:58.011Z,0.00
2022-09-22T04:29:56.980Z,0.00
2022-09-22T04:30:57.051Z,0.00
2022-09-22T04:31:56.990Z,0.00
2022-09-22T04:32:56.961Z,0.00
2022-09-22T04:33:56.940Z,0.00
2022-09-22T04:34:56.940Z,0.00
2022-09-22T04:35:56.930Z,0.00
2022-09-22T04:36:56.924Z,0.00
2022-09-22T04:37:56.941Z,0.00
2022-09-22T04:38:57.000Z,0.00
2022-09-22T04:39:56.881Z,0.00
2022-09-22T04:40:56.879Z,0.00
2022-09-22T04:41:56.873Z,0.00
2022-09-22T04:42:56.862Z,0.00
2022-09-22T04:43:56.873Z,0.00
2022-09-22T04:44:56.840Z,0.00
2022-09-22T04:45:56.873Z,0.00
2022-09-22T04:46:56.825Z,0.00
2022-09-22T04:47:56.800Z,0.00
2022-09-22T04:48:56.794Z,0.00
2022-09-22T04:49:56.810Z,0.00
2022-09-22T04:50:56.785Z,0.00
2022-09-22T04:51:56.762Z,0.00
2022-09-22T04:52:56.752Z,0.00
2022-09-22T04:53:56.747Z,0.00
2022-09-22T04:54:56.740Z,0.00
2022-09-22T04:55:56.742Z,0.00
2022-09-22T04:56:56.714Z,0.00
2022-09-22T04:57:56.695Z,0.00
2022-09-22T04:58:56.693Z,0.00
2022-09-22T04:59:56.675Z,0.00
2022-09-22T05:00:56.742Z,0.00
2022-09-22T05:01:56.701Z,0.00
2022-09-22T05:02:56.696Z,0.00
2022-09-22T05:03:56.643Z,0.00
2022-09-22T05:04:56.632Z,0.00
2022-09-22T05:05:56.625Z,0.00
2022-09-22T05:06:56.615Z,0.00
2022-09-22T05:07:56.635Z,0.00
2022-09-22T05:08:56.702Z,0.00
2022-09-22T05:09:56.585Z,0.00
2022-09-22T05:10:56.575Z,0.00
2022-09-22T05:11:56.563Z,0.00
2022-09-22T05:12:56.547Z,0.00
2022-09-22T05:13:56.566Z,0.00
2022-09-22T05:14:56.534Z,0.00
2022-09-22T05:15:56.523Z,0.00
2022-09-22T05:16:56.575Z,0.00
2022-09-22T05:17:56.497Z,0.00
2022-09-22T05:18:56.495Z,0.00
2022-09-22T05:19:56.508Z,0.00
2022-09-22T05:20:56.468Z,0.00
2022-09-22T05:21:56.457Z,5.62
2022-09-22T05:22:56.455Z,5.62
2022-09-22T05:23:56.436Z,5.62
2022-09-22T05:24:56.435Z,5.62
2022-09-22T05:25:56.437Z,5.62
2022-09-22T05:26:56.414Z,5.62
2022-09-22T05:27:56.399Z,5.62
2022-09-22T05:28:56.388Z,5.62
2022-09-22T05:29:56.370Z,5.62
2022-09-22T05:30:56.388Z,5.62
2022-09-22T05:31:56.450Z,5.62
2022-09-22T05:32:56.350Z,5.62
2022-09-22T05:33:56.337Z,5.62
2022-09-22T05:34:56.331Z,5.62
2022-09-22T05:35:56.318Z,5.62
2022-09-22T05:36:56.318Z,5.62
2022-09-22T05:37:56.320Z,5.62
2022-09-22T05:38:56.287Z,5.62
2022-09-22T05:39:56.281Z,5.62
2022-09-22T05:40:56.271Z,5.62
2022-09-22T05:41:56.252Z,5.62
2022-09-22T05:42:56.250Z,5.62
2022-09-22T05:43:56.261Z,11.25
2022-09-22T05:44:56.234Z,11.25
2022-09-22T05:45:56.250Z,11.25
2022-09-22T05:46:56.211Z,11.25
2022-09-22T05:47:56.192Z,11.25
2022-09-22T05:48:56.201Z,11.25
2022-09-22T05:49:56.192Z,11.25
2022-09-22T05:50:56.170Z,11.25
2022-09-22T05:51:56.159Z,11.25
2022-09-22T05:52:56.153Z,11.25
2022-09-22T05:53:56.142Z,11.25
2022-09-22T05:54:56.122Z,11.25
2022-09-22T05:55:56.144Z,11.25
2022-09-22T05:56:56.112Z,11.25
2022-09-22T05:57:56.090Z,11.25
2022-09-22T05:58:56.090Z,11.25
2022-09-22T05:59:56.073Z,11.25
2022-09-22T06:00:56.103Z,16.88
2022-09-22T06:01:59.558Z,16.88
2022-09-22T06:02:56.077Z,16.88
2022-09-22T06:03:56.091Z,22.50
2022-09-22T06:04:56.023Z,22.50
2022-09-22T06:05:56.013Z,22.50
2022-09-22T06:06:56.005Z,22.50
2022-09-22T06:07:56.024Z,16.88
2022-09-22T06:08:55.993Z,16.88
2022-09-22T06:09:55.975Z,16.88
2022-09-22T06:10:55.978Z,16.88
2022-09-22T06:11:55.955Z,16.88
2022-09-22T06:12:55.944Z,16.88
2022-09-22T06:13:55.963Z,16.88
2022-09-22T06:14:55.923Z,16.88
2022-09-22T06:15:55.906Z,16.88
2022-09-22T06:16:55.906Z,16.88
2022-09-22T06:17:55.892Z,16.88
2022-09-22T06:18:55.885Z,16.88
2022-09-22T06:19:55.895Z,16.88
2022-09-22T06:20:55.866Z,16.88
2022-09-22T06:21:55.858Z,16.88
2022-09-22T06:22:55.837Z,16.88
2022-09-22T06:23:55.828Z,16.88
2022-09-22T06:24:55.818Z,16.88
2022-09-22T06:25:55.846Z,16.88
2022-09-22T06:26:55.800Z,16.88
2022-09-22T06:27:55.796Z,16.88
2022-09-22T06:28:55.784Z,22.50
2022-09-22T06:29:55.767Z,22.50
2022-09-22T06:30:55.767Z,22.50
2022-09-22T06:31:55.888Z,22.50
2022-09-22T06:32:55.734Z,22.50
2022-09-22T06:33:55.727Z,22.50
2022-09-22T06:34:55.719Z,28.12
2022-09-22T06:35:55.707Z,28.12
2022-09-22T06:36:55.689Z,33.75
2022-09-22T06:37:55.708Z,28.12
2022-09-22T06:38:55.669Z,22.50
2022-09-22T06:39:55.669Z,22.50
2022-09-22T06:40:55.717Z,22.50
2022-09-22T06:41:55.640Z,33.75
2022-09-22T06:42:55.655Z,33.75
2022-09-22T06:43:55.650Z,33.75
2022-09-22T06:44:55.612Z,28.12
2022-09-22T06:45:55.635Z,22.50
2022-09-22T06:46:55.597Z,33.75
2022-09-22T06:47:55.582Z,22.50
2022-09-22T06:48:55.580Z,22.50
2022-09-22T06:49:55.602Z,22.50
2022-09-22T06:50:55.564Z,22.50
2022-09-22T06:51:55.541Z,22.50
2022-09-22T06:52:55.531Z,22.50
2022-09-22T06:53:55.524Z,16.88
2022-09-22T06:54:55.511Z,22.50
2022-09-22T06:55:55.546Z,22.50
2022-09-22T06:56:55.493Z,22.50
2022-09-22T06:57:55.483Z,22.50
2022-09-22T06:59:09.276Z,22.50
2022-09-22T06:59:56.461Z,22.50
2022-09-22T07:00:55.535Z,16.88
2022-09-22T07:01:55.618Z,16.88
2022-09-22T07:02:55.438Z,16.88
2022-09-22T07:03:55.413Z,22.50
2022-09-22T07:04:55.404Z,16.88
2022-09-22T07:05:55.394Z,16.88
2022-09-22T07:06:55.390Z,16.88
2022-09-22T07:07:55.415Z,16.88
2022-09-22T07:08:55.377Z,16.88
2022-09-22T07:09:55.361Z,16.88
2022-09-22T07:10:55.345Z,16.88
2022-09-22T07:11:55.335Z,16.88
2022-09-22T07:12:55.326Z,16.88
2022-09-22T07:13:55.366Z,16.88
2022-09-22T07:14:55.306Z,16.88
2022-09-22T07:15:55.488Z,16.88
2022-09-22T07:16:55.300Z,16.88
2022-09-22T07:17:55.266Z,16.88
2022-09-22T07:18:55.269Z,16.88
2022-09-22T07:19:55.274Z,16.88
2022-09-22T07:20:55.237Z,16.88
2022-09-22T07:21:55.229Z,22.50
2022-09-22T07:22:55.217Z,22.50
2022-09-22T07:23:55.208Z,22.50
2022-09-22T07:24:55.205Z,16.88
2022-09-22T07:25:55.219Z,16.88
2022-09-22T07:26:55.179Z,16.88
2022-09-22T07:27:55.177Z,22.50
2022-09-22T07:28:55.158Z,22.50
2022-09-22T07:29:55.152Z,22.50
2022-09-22T07:30:55.142Z,22.50
2022-09-22T07:31:55.213Z,22.50
2022-09-22T07:32:55.118Z,22.50
2022-09-22T07:33:55.111Z,22.50
2022-09-22T07:34:55.100Z,28.12
2022-09-22T07:35:55.089Z,28.12
2022-09-22T07:36:55.073Z,28.12
2022-09-22T07:37:55.102Z,33.75
2022-09-22T07:38:55.057Z,33.75
2022-09-22T07:39:55.057Z,50.62
2022-09-22T07:40:55.033Z,56.25
2022-09-22T07:41:55.031Z,50.62
2022-09-22T07:42:55.020Z,61.88
2022-09-22T07:43:55.032Z,61.88
2022-09-22T07:44:54.992Z,33.75
2022-09-22T07:45:54.994Z,28.12
2022-09-22T07:46:55.013Z,28.12
2022-09-22T07:47:54.971Z,28.12
2022-09-22T07:48:54.960Z,28.12
2022-09-22T07:49:54.964Z,33.75
2022-09-22T07:50:54.939Z,33.75
2022-09-22T07:51:55.137Z,39.38
2022-09-22T07:52:54.913Z,39.38
2022-09-22T07:53:54.902Z,67.50
2022-09-22T07:54:55.026Z,90.00
2022-09-22T07:55:54.907Z,67.50
2022-09-22T07:56:54.864Z,67.50
2022-09-22T07:57:54.868Z,73.12
2022-09-22T07:58:54.848Z,78.75
2022-09-22T07:59:54.836Z,78.75
2022-09-22T08:00:54.872Z,73.12
2022-09-22T08:01:54.872Z,95.62
2022-09-22T08:02:54.806Z,61.88
2022-09-22T08:03:54.796Z,56.25
2022-09-22T08:04:54.777Z,39.38
2022-09-22T08:05:54.870Z,50.62
2022-09-22T08:06:54.768Z,95.62
2022-09-22T08:07:54.778Z,90.00
2022-09-22T08:08:54.737Z,101.25
2022-09-22T08:09:54.737Z,67.50
2022-09-22T08:10:54.718Z,95.62
2022-09-22T08:11:54.709Z,118.12
2022-09-22T08:12:54.700Z,118.12
2022-09-22T08:13:54.735Z,118.12
2022-09-22T08:14:54.679Z,67.50
2022-09-22T08:15:54.721Z,56.25
2022-09-22T08:16:54.659Z,50.62
2022-09-22T08:17:54.652Z,39.38
2022-09-22T08:18:54.648Z,39.38
2022-09-22T08:19:54.660Z,33.75
2022-09-22T08:20:54.623Z,33.75
2022-09-22T08:21:54.769Z,33.75
2022-09-22T08:22:54.592Z,33.75
2022-09-22T08:23:54.593Z,28.12
2022-09-22T08:24:54.573Z,28.12
2022-09-22T08:25:54.604Z,22.50
2022-09-22T08:26:54.562Z,22.50
2022-09-22T08:27:54.544Z,22.50
2022-09-22T08:28:54.562Z,22.50
2022-09-22T08:29:54.523Z,22.50
2022-09-22T08:30:54.503Z,22.50
2022-09-22T08:31:54.792Z,22.50
2022-09-22T08:32:54.484Z,22.50
2022-09-22T08:33:54.504Z,16.88
2022-09-22T08:34:54.472Z,11.25
2022-09-22T08:35:54.469Z,11.25
2022-09-22T08:36:54.445Z,11.25
2022-09-22T08:37:54.473Z,16.88
2022-09-22T08:38:54.424Z,16.88
2022-09-22T08:39:54.415Z,16.88
2022-09-22T08:40:54.517Z,16.88
2022-09-22T08:41:54.395Z,16.88
2022-09-22T08:42:54.426Z,16.88
2022-09-22T08:43:54.408Z,22.50
2022-09-22T08:44:54.357Z,22.50
2022-09-22T08:45:54.350Z,22.50
2022-09-22T08:46:54.379Z,28.12
2022-09-22T08:47:54.326Z,50.62
2022-09-22T08:48:54.318Z,56.25
2022-09-22T08:49:54.337Z,50.62
2022-09-22T08:50:54.289Z,50.62
2022-09-22T08:51:54.289Z,45.00
2022-09-22T08:52:54.273Z,45.00
2022-09-22T08:53:54.271Z,45.00
2022-09-22T08:54:54.253Z,45.00
2022-09-22T08:55:54.271Z,39.38
2022-09-22T08:56:54.239Z,45.00
2022-09-22T08:57:54.221Z,50.62
2022-09-22T08:58:54.212Z,50.62
2022-09-22T08:59:54.206Z,50.62
2022-09-22T09:00:54.191Z,45.00
2022-09-22T09:01:54.247Z,45.00
2022-09-22T09:02:54.231Z,45.00
2022-09-22T09:03:54.160Z,50.62
2022-09-22T09:04:54.146Z,45.00
2022-09-22T09:05:54.140Z,45.00
2022-09-22T09:06:54.136Z,45.00
2022-09-22T09:07:54.143Z,56.25
2022-09-22T09:08:54.104Z,50.62
2022-09-22T09:09:54.095Z,56.25
2022-09-22T09:10:54.093Z,61.88
2022-09-22T09:11:54.077Z,61.88
2022-09-22T09:12:54.065Z,56.25
2022-09-22T09:13:54.105Z,45.00
2022-09-22T09:14:54.046Z,39.38
2022-09-22T09:15:54.058Z,39.38
2022-09-22T09:16:54.016Z,45.00
2022-09-22T09:17:54.016Z,56.25
2022-09-22T09:18:54.007Z,39.38
2022-09-22T09:19:54.017Z,39.38
2022-09-22T09:20:53.980Z,45.00
2022-09-22T09:21:53.966Z,39.38
2022-09-22T09:22:53.961Z,39.38
2022-09-22T09:25:54.936Z,73.12
2022-09-22T09:26:53.920Z,90.00
2022-09-22T09:27:53.909Z,95.62
2022-09-22T09:28:53.899Z,95.62
2022-09-22T09:29:53.886Z,78.75
2022-09-22T09:30:53.935Z,84.38
2022-09-22T09:31:53.868Z,61.88
2022-09-22T09:32:53.858Z,84.38
2022-09-22T09:33:53.850Z,84.38
2022-09-22T09:34:55.949Z,73.12
2022-09-22T09:35:53.864Z,45.00
2022-09-22T09:36:53.842Z,45.00
2022-09-22T09:37:53.802Z,45.00
2022-09-22T09:38:53.785Z,39.38
2022-09-22T09:39:53.784Z,39.38
2022-09-22T09:40:53.773Z,33.75
2022-09-22T09:41:53.762Z,33.75
2022-09-22T09:42:53.766Z,28.12
2022-09-22T09:43:53.744Z,28.12
2022-09-22T09:44:53.739Z,22.50
2022-09-22T09:45:53.716Z,28.12
2022-09-22T09:46:53.705Z,28.12
2022-09-22T09:47:59.086Z,28.12
2022-09-22T09:48:54.710Z,33.75
2022-09-22T09:49:53.676Z,33.75
2022-09-22T09:50:53.661Z,33.75
2022-09-22T09:51:53.656Z,39.38
2022-09-22T09:52:53.636Z,39.38
2022-09-22T09:53:53.632Z,39.38
2022-09-22T09:54:53.636Z,33.75
2022-09-22T09:55:53.606Z,33.75
2022-09-22T09:56:53.599Z,39.38
2022-09-22T09:57:53.598Z,73.12
2022-09-22T09:58:53.571Z,67.50
2022-09-22T09:59:53.567Z,28.12
2022-09-22T10:00:53.569Z,28.12
2022-09-22T10:01:53.586Z,33.75
2022-09-22T10:02:53.530Z,28.12
2022-09-22T10:03:53.549Z,33.75
2022-09-22T10:04:53.511Z,56.25
2022-09-22T10:05:53.500Z,50.62
2022-09-22T10:06:53.533Z,61.88
2022-09-22T10:07:53.472Z,22.50
2022-09-22T10:08:53.469Z,22.50
2022-09-22T10:09:53.459Z,22.50
2022-09-22T10:10:53.442Z,28.12
2022-09-22T10:11:53.432Z,28.12
2022-09-22T10:12:53.464Z,28.12
2022-09-22T10:13:53.413Z,33.75
2022-09-22T10:14:53.396Z,33.75
2022-09-22T10:15:53.481Z,33.75
2022-09-22T10:16:53.444Z,33.75
2022-09-22T10:17:53.373Z,39.38
2022-09-22T10:18:53.381Z,28.12
2022-09-22T10:19:53.345Z,28.12
2022-09-22T10:20:53.333Z,28.12
2022-09-22T10:21:53.335Z,28.12
2022-09-22T10:22:53.325Z,28.12
2022-09-22T10:23:53.311Z,28.12
2022-09-22T10:24:53.317Z,28.12
2022-09-22T10:25:53.285Z,28.12
2022-09-22T10:26:53.268Z,28.12
2022-09-22T10:27:53.258Z,28.12
2022-09-22T10:28:53.250Z,28.12
2022-09-22T10:29:53.238Z,28.12
2022-09-22T10:30:53.280Z,50.62
2022-09-22T10:31:53.219Z,73.12
2022-09-22T10:32:53.210Z,78.75
2022-09-22T10:33:53.200Z,78.75
2022-09-22T10:34:53.179Z,84.38
2022-09-22T10:35:53.180Z,84.38
2022-09-22T10:36:53.181Z,84.38
2022-09-22T10:37:53.157Z,90.00
2022-09-22T10:38:54.565Z,90.00
2022-09-22T10:39:54.129Z,84.38
2022-09-22T10:40:53.178Z,84.38
2022-09-22T10:41:53.112Z,90.00
2022-09-22T10:42:53.133Z,95.62
2022-09-22T10:43:53.096Z,95.62
2022-09-22T10:44:53.080Z,84.38
2022-09-22T10:45:53.135Z,50.62
2022-09-22T10:46:53.064Z,39.38
2022-09-22T10:47:53.057Z,33.75
2022-09-22T10:48:53.062Z,33.75
2022-09-22T10:49:53.036Z,101.25
2022-09-22T10:50:53.016Z,61.88
2022-09-22T10:51:53.013Z,90.00
2022-09-22T10:52:52.996Z,67.50
2022-09-22T10:53:52.985Z,95.62
2022-09-22T10:54:52.997Z,39.38
2022-09-22T10:55:52.969Z,33.75
2022-09-22T10:56:52.957Z,45.00
2022-09-22T10:57:52.946Z,33.75
2022-09-22T10:58:53.006Z,28.12
2022-09-22T10:59:52.928Z,28.12
2022-09-22T11:00:52.929Z,39.38
2022-09-22T11:01:52.950Z,39.38
2022-09-22T11:02:52.898Z,45.00
2022-09-22T11:03:52.879Z,45.00
2022-09-22T11:04:52.901Z,84.38
2022-09-22T11:05:52.861Z,106.88
2022-09-22T11:06:52.872Z,84.38
2022-09-22T11:07:52.842Z,61.88
2022-09-22T11:08:52.831Z,56.25
2022-09-22T11:09:52.821Z,50.62
2022-09-22T11:10:52.842Z,61.88
2022-09-22T11:11:52.831Z,56.25
2022-09-22T11:12:52.811Z,56.25
2022-09-22T11:13:52.782Z,56.25
2022-09-22T11:14:52.770Z,45.00
2022-09-22T11:15:52.778Z,39.38
2022-09-22T11:16:52.743Z,39.38
2022-09-22T11:17:52.741Z,33.75
2022-09-22T11:18:52.746Z,28.12
2022-09-22T11:19:52.722Z,28.12
2022-09-22T11:20:52.704Z,33.75
2022-09-22T11:21:52.695Z,28.12
2022-09-22T11:22:52.674Z,22.50
2022-09-22T11:23:52.677Z,28.12
2022-09-22T11:24:52.686Z,28.12
2022-09-22T11:25:52.655Z,28.12
2022-09-22T11:26:52.646Z,22.50
2022-09-22T11:27:52.636Z,22.50
2022-09-22T11:28:57.116Z,22.50
2022-09-22T11:29:53.637Z,22.50
2022-09-22T11:30:52.652Z,22.50
2022-09-22T11:31:52.597Z,22.50
2022-09-22T11:32:52.578Z,22.50
2022-09-22T11:33:52.568Z,28.12
2022-09-22T11:34:52.559Z,33.75
2022-09-22T11:35:52.575Z,39.38
2022-09-22T11:36:52.540Z,33.75
2022-09-22T11:37:52.529Z,39.38
2022-09-22T11:38:52.519Z,39.38
2022-09-22T11:39:52.510Z,39.38
2022-09-22T11:40:52.592Z,39.38
2022-09-22T11:41:52.529Z,39.38
2022-09-22T11:42:52.471Z,39.38
2022-09-22T11:43:55.719Z,39.38
2022-09-22T11:44:53.461Z,45.00
2022-09-22T11:45:52.457Z,45.00
2022-09-22T11:46:52.433Z,45.00
2022-09-22T11:47:52.472Z,45.00
2022-09-22T11:48:52.421Z,45.00
2022-09-22T11:49:52.402Z,45.00
2022-09-22T11:50:52.395Z,39.38
2022-09-22T11:51:52.383Z,39.38
2022-09-22T11:52:58.260Z,39.38
2022-09-22T11:53:53.383Z,39.38
2022-09-22T11:54:52.364Z,90.00
2022-09-22T11:55:52.338Z,45.00
2022-09-22T11:56:52.325Z,45.00
2022-09-22T11:57:52.317Z,45.00
2022-09-22T11:58:52.315Z,50.62
2022-09-22T11:59:52.316Z,73.12
2022-09-22T12:00:52.306Z,146.25
2022-09-22T12:01:52.286Z,123.75
2022-09-22T12:02:52.416Z,95.62
2022-09-22T12:03:52.258Z,95.62
2022-09-22T12:04:52.249Z,67.50
2022-09-22T12:05:52.256Z,123.75
2022-09-22T12:06:52.232Z,129.38
2022-09-22T12:07:52.221Z,90.00
2022-09-22T12:08:52.242Z,45.00
2022-09-22T12:09:52.201Z,123.75
2022-09-22T12:10:52.188Z,50.62
2022-09-22T12:11:52.191Z,45.00
2022-09-22T12:12:52.161Z,50.62
2022-09-22T12:13:52.152Z,73.12
2022-09-22T12:14:52.141Z,67.50
2022-09-22T12:15:52.183Z,112.50
2022-09-22T12:16:52.121Z,50.62
2022-09-22T12:17:52.123Z,45.00
2022-09-22T12:18:52.100Z,39.38
2022-09-22T12:19:52.084Z,33.75
2022-09-22T12:20:52.074Z,33.75
2022-09-22T12:21:52.066Z,28.12
2022-09-22T12:22:52.055Z,28.12
2022-09-22T12:23:52.066Z,22.50
2022-09-22T12:24:52.036Z,22.50
2022-09-22T12:25:52.028Z,22.50
2022-09-22T12:26:52.012Z,22.50
2022-09-22T12:27:51.996Z,22.50
2022-09-22T12:28:51.987Z,22.50
2022-09-22T12:29:52.008Z,28.12
2022-09-22T12:30:52.032Z,33.75
2022-09-22T12:31:51.959Z,28.12
2022-09-22T12:32:51.947Z,22.50
2022-09-22T12:33:51.937Z,22.50
2022-09-22T12:34:51.930Z,22.50
2022-09-22T12:35:51.950Z,16.88
2022-09-22T12:36:51.908Z,11.25
2022-09-22T12:37:51.889Z,11.25
2022-09-22T12:38:51.879Z,16.88
2022-09-22T12:39:51.874Z,11.25
2022-09-22T12:40:51.861Z,16.88
2022-09-22T12:41:51.870Z,16.88
2022-09-22T12:42:51.838Z,16.88
2022-09-22T12:43:51.829Z,22.50
2022-09-22T12:44:51.820Z,28.12
2022-09-22T12:45:51.878Z,39.38
2022-09-22T12:46:51.798Z,39.38
2022-09-22T12:47:51.805Z,33.75
2022-09-22T12:48:51.774Z,33.75
2022-09-22T12:49:51.765Z,28.12
2022-09-22T12:50:51.763Z,28.12
2022-09-22T12:51:51.748Z,22.50
2022-09-22T12:52:51.733Z,22.50
2022-09-22T12:53:51.748Z,22.50
2022-09-22T12:54:51.714Z,22.50
2022-09-22T12:55:51.697Z,22.50
2022-09-22T12:56:51.697Z,16.88
2022-09-22T12:57:51.680Z,22.50
2022-09-22T12:58:51.676Z,22.50
2022-09-22T12:59:51.682Z,22.50
2022-09-22T13:00:51.697Z,33.75
2022-09-22T13:01:51.717Z,33.75
2022-09-22T13:02:51.630Z,39.38
2022-09-22T13:03:51.616Z,33.75
2022-09-22T13:04:51.608Z,33.75
2022-09-22T13:05:51.629Z,33.75